Terminal Aerodrome Forecast
Issued by NWS

Home | Current Version | Previous Version | Graphics & Text | Print | Product List | Glossary On
Versions: 1 2 3 4 5 6 7 8 9 10 11 12
000
FTUS43 KMPX 012327
TAFAXN
TAF
KAXN 012327Z 0200/0224 15013G19KT P6SM SCT080
     FM020600 16012KT P6SM FEW080 SCT250
     FM021500 17017G25KT P6SM FEW040 BKN070
     FM022100 17020G28KT P6SM BKN040=

USA.gov is the U.S. government's official web portal to all federal, state and local government web resources and services.